Data Viewer
| City | State | Eastern Time | Source | Temp | DewPt | RH | BP | 5 Min Precip | Wind Speed | Wind Dir | 5 Min Wind Max | 5 Min Wind Max Dir |
|---|---|---|---|---|---|---|---|---|---|---|---|---|
| Stafford Twp. | NJ | 2026-05-07 13:35 | NJDOT | 59 | 43 | 55 | 11 | |||||
| Stafford Twp. | NJ | 2026-05-08 06:00 | NJDOT | 49 | 41 | 74 | 19 | |||||
| Stafford Twp. | NJ | 2026-05-08 04:50 | NJDOT | 50 | 45 | 82 | 22 | |||||
| Stafford Twp. | NJ | 2026-05-08 05:00 | NJDOT | 50 | 44 | 79 | 21 | |||||
| Stafford Twp. | NJ | 2026-05-08 05:05 | NJDOT | 50 | 43 | 78 | 21 | |||||
| Stafford Twp. | NJ | 2026-05-08 05:10 | NJDOT | 50 | 43 | 77 | 21 | |||||
| Stafford Twp. | NJ | 2026-05-08 05:20 | NJDOT | 50 | 42 | 74 | 24 | |||||
| Stafford Twp. | NJ | 2026-05-08 05:25 | NJDOT | 49 | 42 | 74 | 24 | |||||
| Stafford Twp. | NJ | 2026-05-08 05:30 | NJDOT | 49 | 41 | 73 | 24 | |||||
| Stafford Twp. | NJ | 2026-05-08 05:35 | NJDOT | 49 | 42 | 74 | 21 | |||||
| Stafford Twp. | NJ | 2026-05-08 05:40 | NJDOT | 49 | 42 | 75 | 21 | |||||
| Stafford Twp. | NJ | 2026-05-08 05:45 | NJDOT | 49 | 41 | 74 | 21 | |||||
| Stafford Twp. | NJ | 2026-05-08 05:50 | NJDOT | 49 | 41 | 73 | 22 | |||||
| Stafford Twp. | NJ | 2026-05-08 06:05 | NJDOT | 48 | 40 | 73 | 17 | |||||
| Stafford Twp. | NJ | 2026-05-08 04:40 | NJDOT | 50 | 45 | 84 | 21 | |||||
| Stafford Twp. | NJ | 2026-05-08 06:10 | NJDOT | 48 | 40 | 73 | 17 | |||||
| Stafford Twp. | NJ | 2026-05-08 06:15 | NJDOT | 49 | 40 | 73 | 16 | |||||
| Stafford Twp. | NJ | 2026-05-08 06:20 | NJDOT | 49 | 40 | 72 | 16 | |||||
| Stafford Twp. | NJ | 2026-05-08 06:25 | NJDOT | 49 | 40 | 73 | 16 | |||||
| Stafford Twp. | NJ | 2026-05-08 06:30 | NJDOT | 49 | 40 | 72 | 15 | |||||
| Stafford Twp. | NJ | 2026-05-08 06:35 | NJDOT | 49 | 40 | 71 | 15 | |||||
| Stafford Twp. | NJ | 2026-05-08 07:00 | NJDOT | 49 | 40 | 71 | 11 | |||||
| Stafford Twp. | NJ | 2026-05-08 07:05 | NJDOT | 49 | 40 | 70 | 10 | |||||
| Stafford Twp. | NJ | 2026-05-08 07:10 | NJDOT | 49 | 40 | 69 | 10 | |||||
| Stafford Twp. | NJ | 2026-05-08 07:20 | NJDOT | 50 | 40 | 69 | 8 | |||||
| Stafford Twp. | NJ | 2026-05-08 07:25 | NJDOT | 50 | 40 | 68 | 9 | |||||
| Stafford Twp. | NJ | 2026-05-08 07:35 | NJDOT | 51 | 40 | 67 | 9 | |||||
| Stafford Twp. | NJ | 2026-05-08 04:45 | NJDOT | 50 | 45 | 83 | 22 | |||||
| Stafford Twp. | NJ | 2026-05-08 04:35 | NJDOT | 50 | 46 | 85 | 21 | |||||
| Stafford Twp. | NJ | 2026-05-08 07:45 | NJDOT | 51 | 40 | 64 | 7 | |||||
| Stafford Twp. | NJ | 2026-05-08 03:15 | NJDOT | 51 | 46 | 85 | 11 | |||||
| Stafford Twp. | NJ | 2026-05-08 02:10 | NJDOT | 50 | 47 | 87 | 12 | |||||
| Stafford Twp. | NJ | 2026-05-08 02:15 | NJDOT | 50 | 47 | 87 | 11 | |||||
| Stafford Twp. | NJ | 2026-05-08 02:20 | NJDOT | 50 | 46 | 86 | 12 | |||||
| Stafford Twp. | NJ | 2026-05-08 02:25 | NJDOT | 50 | 46 | 87 | 12 | |||||
| Stafford Twp. | NJ | 2026-05-08 02:30 | NJDOT | 50 | 47 | 86 | 13 | |||||
| Stafford Twp. | NJ | 2026-05-08 02:35 | NJDOT | 51 | 47 | 86 | 13 | |||||
| Stafford Twp. | NJ | 2026-05-08 02:40 | NJDOT | 51 | 46 | 85 | 11 | |||||
| Stafford Twp. | NJ | 2026-05-08 02:45 | NJDOT | 51 | 46 | 84 | 12 | |||||
| Stafford Twp. | NJ | 2026-05-08 02:50 | NJDOT | 51 | 46 | 85 | 12 | |||||
| Stafford Twp. | NJ | 2026-05-08 03:00 | NJDOT | 51 | 46 | 85 | 11 | |||||
| Stafford Twp. | NJ | 2026-05-08 03:05 | NJDOT | 51 | 46 | 85 | 12 | |||||
| Stafford Twp. | NJ | 2026-05-08 03:10 | NJDOT | 51 | 46 | 85 | 12 | |||||
| Stafford Twp. | NJ | 2026-05-08 03:20 | NJDOT | 51 | 46 | 84 | 11 | |||||
| Stafford Twp. | NJ | 2026-05-08 04:30 | NJDOT | 50 | 46 | 85 | 21 | |||||
| Stafford Twp. | NJ | 2026-05-08 03:25 | NJDOT | 51 | 46 | 85 | 11 | |||||
| Stafford Twp. | NJ | 2026-05-08 03:30 | NJDOT | 51 | 46 | 85 | 13 | |||||
| Stafford Twp. | NJ | 2026-05-08 03:35 | NJDOT | 51 | 46 | 84 | 15 | |||||
| Stafford Twp. | NJ | 2026-05-08 03:40 | NJDOT | 51 | 46 | 84 | 18 | |||||
| Stafford Twp. | NJ | 2026-05-08 03:45 | NJDOT | 51 | 46 | 84 | 18 | |||||
| Stafford Twp. | NJ | 2026-05-08 03:50 | NJDOT | 51 | 47 | 84 | 18 | |||||
| Stafford Twp. | NJ | 2026-05-08 04:00 | NJDOT | 51 | 46 | 84 | 18 | |||||
| Stafford Twp. | NJ | 2026-05-08 04:05 | NJDOT | 51 | 46 | 84 | 20 | |||||
| Stafford Twp. | NJ | 2026-05-08 04:10 | NJDOT | 50 | 46 | 84 | 20 | |||||
| Stafford Twp. | NJ | 2026-05-08 04:15 | NJDOT | 50 | 46 | 83 | 18 | |||||
| Stafford Twp. | NJ | 2026-05-08 04:20 | NJDOT | 51 | 46 | 83 | 19 | |||||
| Stafford Twp. | NJ | 2026-05-08 04:25 | NJDOT | 50 | 46 | 84 | 19 | |||||
| Stafford Twp. | NJ | 2026-05-08 07:40 | NJDOT | 51 | 39 | 65 | 8 | |||||
| Stafford Twp. | NJ | 2026-05-08 07:50 | NJDOT | 52 | 40 | 63 | 7 | |||||
| Stafford Twp. | NJ | 2026-05-08 02:00 | NJDOT | 50 | 47 | 87 | 12 | |||||
| Stafford Twp. | NJ | 2026-05-08 11:50 | NJDOT | 62 | 38 | 32 | 15 | |||||
| Stafford Twp. | NJ | 2026-05-08 10:45 | NJDOT | 60 | 37 | 33 | 13 | |||||
| Stafford Twp. | NJ | 2026-05-08 10:50 | NJDOT | 60 | 36 | 35 | 9 | |||||
| Stafford Twp. | NJ | 2026-05-08 11:00 | NJDOT | 61 | 36 | 35 | 13 | |||||
| Stafford Twp. | NJ | 2026-05-08 11:05 | NJDOT | 62 | 36 | 34 | 14 | |||||
| Stafford Twp. | NJ | 2026-05-08 11:10 | NJDOT | 62 | 36 | 28 | 17 | |||||
| Stafford Twp. | NJ | 2026-05-08 11:15 | NJDOT | 62 | 36 | 32 | 18 | |||||
| Stafford Twp. | NJ | 2026-05-08 11:20 | NJDOT | 62 | 36 | 33 | 19 | |||||
| Stafford Twp. | NJ | 2026-05-08 11:25 | NJDOT | 62 | 36 | 33 | 21 | |||||
| Stafford Twp. | NJ | 2026-05-08 11:30 | NJDOT | 62 | 36 | 33 | 21 | |||||
| Stafford Twp. | NJ | 2026-05-08 11:35 | NJDOT | 62 | 36 | 31 | 18 | |||||
| Stafford Twp. | NJ | 2026-05-08 11:40 | NJDOT | 62 | 38 | 33 | 16 | |||||
| Stafford Twp. | NJ | 2026-05-08 11:45 | NJDOT | 63 | 38 | 33 | 15 | |||||
| Stafford Twp. | NJ | 2026-05-08 12:00 | NJDOT | 63 | 38 | 32 | 21 | |||||
| Stafford Twp. | NJ | 2026-05-08 10:35 | NJDOT | 59 | 36 | 34 | 9 | |||||
| Stafford Twp. | NJ | 2026-05-08 12:05 | NJDOT | 63 | 38 | 32 | 21 | |||||
| Stafford Twp. | NJ | 2026-05-08 12:10 | NJDOT | 63 | 38 | 33 | 16 | |||||
| Stafford Twp. | NJ | 2026-05-08 12:15 | NJDOT | 62 | 38 | 36 | 15 | |||||
| Stafford Twp. | NJ | 2026-05-08 12:20 | NJDOT | 62 | 37 | 39 | 14 | |||||
| Stafford Twp. | NJ | 2026-05-08 12:25 | NJDOT | 64 | 38 | 32 | 17 | |||||
| Stafford Twp. | NJ | 2026-05-08 12:30 | NJDOT | 64 | 38 | 34 | 17 | |||||
| Stafford Twp. | NJ | 2026-05-08 12:40 | NJDOT | 63 | 40 | 49 | 17 | |||||
| Stafford Twp. | NJ | 2026-05-08 13:00 | NJDOT | 63 | 39 | 45 | 23 | |||||
| Stafford Twp. | NJ | 2026-05-08 13:05 | NJDOT | 63 | 37 | 42 | 26 | |||||
| Stafford Twp. | NJ | 2026-05-08 13:10 | NJDOT | 63 | 39 | 49 | 26 | |||||
| Stafford Twp. | NJ | 2026-05-08 13:15 | NJDOT | 63 | 39 | 46 | 25 | |||||
| Stafford Twp. | NJ | 2026-05-08 13:20 | NJDOT | 63 | 39 | 49 | 24 | |||||
| Stafford Twp. | NJ | 2026-05-08 10:40 | NJDOT | 60 | 37 | 32 | 13 | |||||
| Stafford Twp. | NJ | 2026-05-08 10:30 | NJDOT | 60 | 36 | 35 | 9 | |||||
| Stafford Twp. | NJ | 2026-05-08 08:00 | NJDOT | 52 | 40 | 63 | 8 | |||||
| Stafford Twp. | NJ | 2026-05-08 09:10 | NJDOT | 56 | 35 | 45 | 12 | |||||
| Stafford Twp. | NJ | 2026-05-08 08:05 | NJDOT | 52 | 41 | 65 | 7 | |||||
| Stafford Twp. | NJ | 2026-05-08 08:10 | NJDOT | 53 | 41 | 65 | 8 | |||||
| Stafford Twp. | NJ | 2026-05-08 08:15 | NJDOT | 53 | 40 | 62 | 8 | |||||
| Stafford Twp. | NJ | 2026-05-08 08:20 | NJDOT | 53 | 41 | 63 | 8 | |||||
| Stafford Twp. | NJ | 2026-05-08 08:25 | NJDOT | 53 | 40 | 61 | 9 | |||||
| Stafford Twp. | NJ | 2026-05-08 08:30 | NJDOT | 54 | 40 | 59 | 9 | |||||
| Stafford Twp. | NJ | 2026-05-08 08:35 | NJDOT | 54 | 40 | 60 | 9 | |||||
| Stafford Twp. | NJ | 2026-05-08 08:40 | NJDOT | 54 | 39 | 56 | 12 | |||||
| Stafford Twp. | NJ | 2026-05-08 08:45 | NJDOT | 55 | 39 | 54 | 12 | |||||
| Stafford Twp. | NJ | 2026-05-08 08:50 | NJDOT | 55 | 39 | 54 | 11 | |||||
| Stafford Twp. | NJ | 2026-05-08 09:00 | NJDOT | 56 | 37 | 49 | 11 | |||||
| Stafford Twp. | NJ | 2026-05-08 09:05 | NJDOT | 57 | 36 | 46 | 11 | |||||
| Stafford Twp. | NJ | 2026-05-08 09:15 | NJDOT | 57 | 38 | 48 | 12 | |||||
| Stafford Twp. | NJ | 2026-05-08 10:25 | NJDOT | 59 | 36 | 37 | 13 | |||||
| Stafford Twp. | NJ | 2026-05-08 09:20 | NJDOT | 57 | 36 | 45 | 10 | |||||
| Stafford Twp. | NJ | 2026-05-08 09:25 | NJDOT | 57 | 35 | 42 | 11 | |||||
| Stafford Twp. | NJ | 2026-05-08 09:30 | NJDOT | 58 | 34 | 40 | 11 | |||||
| Stafford Twp. | NJ | 2026-05-08 09:35 | NJDOT | 59 | 35 | 41 | 15 | |||||
| Stafford Twp. | NJ | 2026-05-08 09:40 | NJDOT | 58 | 32 | 38 | 15 | |||||
| Stafford Twp. | NJ | 2026-05-08 09:45 | NJDOT | 58 | 39 | 42 | 15 | |||||
| Stafford Twp. | NJ | 2026-05-08 09:50 | NJDOT | 59 | 37 | 38 | 12 | |||||
| Stafford Twp. | NJ | 2026-05-08 10:00 | NJDOT | 58 | 36 | 39 | 15 | |||||
| Stafford Twp. | NJ | 2026-05-08 10:05 | NJDOT | 58 | 34 | 39 | 12 | |||||
| Stafford Twp. | NJ | 2026-05-08 10:10 | NJDOT | 59 | 36 | 34 | 14 | |||||
| Stafford Twp. | NJ | 2026-05-08 10:15 | NJDOT | 59 | 36 | 34 | 14 | |||||
| Stafford Twp. | NJ | 2026-05-08 10:20 | NJDOT | 59 | 36 | 35 | 13 | |||||
| Stafford Twp. | NJ | 2026-05-08 02:05 | NJDOT | 50 | 46 | 87 | 12 | |||||
| Stafford Twp. | NJ | 2026-05-08 01:50 | NJDOT | 50 | 47 | 87 | 15 | |||||
| Stafford Twp. | NJ | 2026-05-07 13:40 | NJDOT | 58 | 44 | 59 | 11 | |||||
| Stafford Twp. | NJ | 2026-05-07 17:35 | NJDOT | 55 | 42 | 59 | 12 | |||||
| Stafford Twp. | NJ | 2026-05-07 16:30 | NJDOT | 56 | 45 | 65 | 15 | |||||
| Stafford Twp. | NJ | 2026-05-07 16:35 | NJDOT | 56 | 46 | 70 | 15 | |||||
| Stafford Twp. | NJ | 2026-05-07 16:40 | NJDOT | 55 | 46 | 71 | 15 | |||||
| Stafford Twp. | NJ | 2026-05-07 16:45 | NJDOT | 56 | 47 | 70 | 14 | |||||
| Stafford Twp. | NJ | 2026-05-07 16:50 | NJDOT | 56 | 46 | 68 | 14 | |||||
| Stafford Twp. | NJ | 2026-05-07 17:00 | NJDOT | 57 | 43 | 62 | 15 | |||||
| Stafford Twp. | NJ | 2026-05-07 17:05 | NJDOT | 56 | 43 | 63 | 13 | |||||
| Stafford Twp. | NJ | 2026-05-07 17:10 | NJDOT | 57 | 44 | 63 | 13 | |||||
| Stafford Twp. | NJ | 2026-05-07 17:15 | NJDOT | 57 | 42 | 57 | 13 | |||||
| Stafford Twp. | NJ | 2026-05-07 17:20 | NJDOT | 57 | 42 | 58 | 14 | |||||
| Stafford Twp. | NJ | 2026-05-07 17:25 | NJDOT | 57 | 41 | 56 | 14 | |||||
| Stafford Twp. | NJ | 2026-05-07 17:30 | NJDOT | 57 | 40 | 52 | 13 | |||||
| Stafford Twp. | NJ | 2026-05-07 17:40 | NJDOT | 55 | 42 | 60 | 12 | |||||
| Stafford Twp. | NJ | 2026-05-07 16:20 | NJDOT | 56 | 46 | 67 | 14 | |||||
| Stafford Twp. | NJ | 2026-05-07 17:45 | NJDOT | 55 | 44 | 65 | 14 | |||||
| Stafford Twp. | NJ | 2026-05-07 17:50 | NJDOT | 56 | 44 | 64 | 16 | |||||
| Stafford Twp. | NJ | 2026-05-07 18:00 | NJDOT | 56 | 44 | 63 | 18 | |||||
| Stafford Twp. | NJ | 2026-05-07 18:05 | NJDOT | 55 | 43 | 63 | 16 | |||||
| Stafford Twp. | NJ | 2026-05-07 18:10 | NJDOT | 56 | 43 | 63 | 16 | |||||
| Stafford Twp. | NJ | 2026-05-07 18:15 | NJDOT | 55 | 42 | 60 | 16 | |||||
| Stafford Twp. | NJ | 2026-05-07 18:20 | NJDOT | 56 | 43 | 61 | 16 | |||||
| Stafford Twp. | NJ | 2026-05-07 18:25 | NJDOT | 55 | 45 | 66 | 16 | |||||
| Stafford Twp. | NJ | 2026-05-07 18:30 | NJDOT | 55 | 45 | 69 | 16 | |||||
| Stafford Twp. | NJ | 2026-05-07 18:40 | NJDOT | 55 | 44 | 66 | 16 | |||||
| Stafford Twp. | NJ | 2026-05-07 19:00 | NJDOT | 54 | 42 | 63 | 16 | |||||
| Stafford Twp. | NJ | 2026-05-07 19:05 | NJDOT | 54 | 42 | 65 | 16 | |||||
| Stafford Twp. | NJ | 2026-05-07 16:25 | NJDOT | 56 | 46 | 67 | 15 | |||||
| Stafford Twp. | NJ | 2026-05-07 16:15 | NJDOT | 57 | 46 | 66 | 14 | |||||
| Stafford Twp. | NJ | 2026-05-07 19:15 | NJDOT | 54 | 40 | 59 | 15 | |||||
| Stafford Twp. | NJ | 2026-05-07 14:50 | NJDOT | 58 | 44 | 59 | 13 | |||||
| Stafford Twp. | NJ | 2026-05-07 13:45 | NJDOT | 58 | 43 | 57 | 11 | |||||
| Stafford Twp. | NJ | 2026-05-07 13:50 | NJDOT | 58 | 41 | 54 | 11 | |||||
| Stafford Twp. | NJ | 2026-05-07 14:00 | NJDOT | 58 | 44 | 62 | 12 | |||||
| Stafford Twp. | NJ | 2026-05-07 14:05 | NJDOT | 58 | 44 | 59 | 12 | |||||
| Stafford Twp. | NJ | 2026-05-07 14:10 | NJDOT | 59 | 44 | 56 | 10 | |||||
| Stafford Twp. | NJ | 2026-05-07 14:15 | NJDOT | 59 | 44 | 58 | 12 | |||||
| Stafford Twp. | NJ | 2026-05-07 14:20 | NJDOT | 58 | 43 | 58 | 13 | |||||
| Stafford Twp. | NJ | 2026-05-07 14:25 | NJDOT | 57 | 43 | 58 | 14 | |||||
| Stafford Twp. | NJ | 2026-05-07 14:30 | NJDOT | 57 | 44 | 62 | 14 | |||||
| Stafford Twp. | NJ | 2026-05-07 14:35 | NJDOT | 58 | 45 | 62 | 14 | |||||
| Stafford Twp. | NJ | 2026-05-07 14:40 | NJDOT | 58 | 44 | 60 | 13 | |||||
| Stafford Twp. | NJ | 2026-05-07 14:45 | NJDOT | 57 | 43 | 58 | 13 | |||||
| Stafford Twp. | NJ | 2026-05-07 15:00 | NJDOT | 58 | 44 | 61 | 13 | |||||
| Stafford Twp. | NJ | 2026-05-07 16:10 | NJDOT | 57 | 45 | 65 | 14 | |||||
| Stafford Twp. | NJ | 2026-05-07 15:05 | NJDOT | 57 | 43 | 59 | 12 | |||||
| Stafford Twp. | NJ | 2026-05-07 15:10 | NJDOT | 57 | 44 | 61 | 12 | |||||
| Stafford Twp. | NJ | 2026-05-07 15:15 | NJDOT | 57 | 44 | 61 | 12 | |||||
| Stafford Twp. | NJ | 2026-05-07 15:20 | NJDOT | 57 | 43 | 59 | 12 | |||||
| Stafford Twp. | NJ | 2026-05-07 15:25 | NJDOT | 56 | 43 | 61 | 14 | |||||
| Stafford Twp. | NJ | 2026-05-07 15:30 | NJDOT | 56 | 43 | 61 | 14 | |||||
| Stafford Twp. | NJ | 2026-05-07 15:35 | NJDOT | 56 | 44 | 64 | 14 | |||||
| Stafford Twp. | NJ | 2026-05-07 15:40 | NJDOT | 56 | 44 | 63 | 14 | |||||
| Stafford Twp. | NJ | 2026-05-07 15:45 | NJDOT | 55 | 44 | 65 | 13 | |||||
| Stafford Twp. | NJ | 2026-05-07 15:50 | NJDOT | 56 | 45 | 65 | 13 | |||||
| Stafford Twp. | NJ | 2026-05-07 16:00 | NJDOT | 57 | 45 | 64 | 13 | |||||
| Stafford Twp. | NJ | 2026-05-07 16:05 | NJDOT | 57 | 45 | 63 | 14 | |||||
| Stafford Twp. | NJ | 2026-05-07 19:10 | NJDOT | 54 | 40 | 60 | 15 | |||||
| Stafford Twp. | NJ | 2026-05-07 19:20 | NJDOT | 54 | 40 | 60 | 14 | |||||
| Stafford Twp. | NJ | 2026-05-08 01:45 | NJDOT | 51 | 47 | 87 | 15 | |||||
| Stafford Twp. | NJ | 2026-05-08 00:15 | NJDOT | 53 | 48 | 83 | 16 | |||||
| Stafford Twp. | NJ | 2026-05-07 23:10 | NJDOT | 53 | 50 | 88 | 17 | |||||
| Stafford Twp. | NJ | 2026-05-07 23:15 | NJDOT | 53 | 50 | 88 | 15 | |||||
| Stafford Twp. | NJ | 2026-05-07 23:20 | NJDOT | 53 | 50 | 88 | 16 | |||||
| Stafford Twp. | NJ | 2026-05-07 23:25 | NJDOT | 53 | 50 | 88 | 17 | |||||
| Stafford Twp. | NJ | 2026-05-07 23:30 | NJDOT | 54 | 50 | 88 | 17 | |||||
| Stafford Twp. | NJ | 2026-05-07 23:35 | NJDOT | 54 | 49 | 85 | 17 | |||||
| Stafford Twp. | NJ | 2026-05-07 23:40 | NJDOT | 54 | 49 | 82 | 20 | |||||
| Stafford Twp. | NJ | 2026-05-07 23:45 | NJDOT | 54 | 48 | 81 | 20 | |||||
| Stafford Twp. | NJ | 2026-05-07 23:50 | NJDOT | 54 | 49 | 81 | 18 | |||||
| Stafford Twp. | NJ | 2026-05-08 00:00 | NJDOT | 54 | 49 | 83 | 18 | |||||
| Stafford Twp. | NJ | 2026-05-08 00:05 | NJDOT | 54 | 49 | 82 | 17 | |||||
| Stafford Twp. | NJ | 2026-05-08 00:10 | NJDOT | 53 | 48 | 83 | 17 | |||||
| Stafford Twp. | NJ | 2026-05-08 00:20 | NJDOT | 53 | 48 | 84 | 16 | |||||
| Stafford Twp. | NJ | 2026-05-07 23:00 | NJDOT | 53 | 49 | 87 | 15 | |||||
| Stafford Twp. | NJ | 2026-05-08 00:25 | NJDOT | 53 | 48 | 85 | 16 | |||||
| Stafford Twp. | NJ | 2026-05-08 00:30 | NJDOT | 52 | 48 | 85 | 15 | |||||
| Stafford Twp. | NJ | 2026-05-08 00:35 | NJDOT | 52 | 48 | 85 | 15 | |||||
| Stafford Twp. | NJ | 2026-05-08 01:00 | NJDOT | 52 | 48 | 86 | 15 | |||||
| Stafford Twp. | NJ | 2026-05-08 01:05 | NJDOT | 52 | 47 | 85 | 15 | |||||
| Stafford Twp. | NJ | 2026-05-08 01:10 | NJDOT | 52 | 47 | 86 | 15 | |||||
| Stafford Twp. | NJ | 2026-05-08 01:15 | NJDOT | 51 | 47 | 86 | 15 | |||||
| Stafford Twp. | NJ | 2026-05-08 01:20 | NJDOT | 51 | 47 | 86 | 14 | |||||
| Stafford Twp. | NJ | 2026-05-08 01:25 | NJDOT | 51 | 47 | 86 | 15 | |||||
| Stafford Twp. | NJ | 2026-05-08 01:30 | NJDOT | 51 | 47 | 86 | 15 | |||||
| Stafford Twp. | NJ | 2026-05-08 01:35 | NJDOT | 51 | 47 | 87 | 15 | |||||
| Stafford Twp. | NJ | 2026-05-08 01:40 | NJDOT | 51 | 47 | 87 | 14 | |||||
| Stafford Twp. | NJ | 2026-05-07 23:05 | NJDOT | 53 | 50 | 87 | 17 | |||||
| Stafford Twp. | NJ | 2026-05-07 22:50 | NJDOT | 53 | 50 | 88 | 14 | |||||
| Stafford Twp. | NJ | 2026-05-07 19:25 | NJDOT | 53 | 39 | 57 | 14 | |||||
| Stafford Twp. | NJ | 2026-05-07 20:35 | NJDOT | 52 | 48 | 87 | 16 | |||||
| Stafford Twp. | NJ | 2026-05-07 19:30 | NJDOT | 53 | 39 | 57 | 14 | |||||
| Stafford Twp. | NJ | 2026-05-07 19:35 | NJDOT | 53 | 39 | 58 | 13 | |||||
| Stafford Twp. | NJ | 2026-05-07 19:40 | NJDOT | 53 | 41 | 63 | 14 | |||||
| Stafford Twp. | NJ | 2026-05-07 19:45 | NJDOT | 53 | 41 | 65 | 14 | |||||
| Stafford Twp. | NJ | 2026-05-07 19:50 | NJDOT | 53 | 41 | 65 | 17 | |||||
| Stafford Twp. | NJ | 2026-05-07 20:00 | NJDOT | 53 | 44 | 73 | 16 | |||||
| Stafford Twp. | NJ | 2026-05-07 20:05 | NJDOT | 52 | 46 | 79 | 15 | |||||
| Stafford Twp. | NJ | 2026-05-07 20:10 | NJDOT | 53 | 47 | 82 | 15 | |||||
| Stafford Twp. | NJ | 2026-05-07 20:15 | NJDOT | 52 | 47 | 84 | 15 | |||||
| Stafford Twp. | NJ | 2026-05-07 20:20 | NJDOT | 52 | 48 | 85 | 15 | |||||
| Stafford Twp. | NJ | 2026-05-07 20:25 | NJDOT | 52 | 48 | 85 | 14 | |||||
| Stafford Twp. | NJ | 2026-05-07 20:30 | NJDOT | 52 | 48 | 86 | 16 | |||||
| Stafford Twp. | NJ | 2026-05-07 20:40 | NJDOT | 52 | 49 | 87 | 16 | |||||
| Stafford Twp. | NJ | 2026-05-07 22:45 | NJDOT | 53 | 50 | 88 | 16 | |||||
| Stafford Twp. | NJ | 2026-05-07 20:45 | NJDOT | 52 | 49 | 88 | 17 | |||||
| Stafford Twp. | NJ | 2026-05-07 20:50 | NJDOT | 52 | 49 | 88 | 17 | |||||
| Stafford Twp. | NJ | 2026-05-07 21:00 | NJDOT | 52 | 48 | 87 | 17 | |||||
| Stafford Twp. | NJ | 2026-05-07 21:05 | NJDOT | 52 | 48 | 87 | 17 | |||||
| Stafford Twp. | NJ | 2026-05-07 21:50 | NJDOT | 52 | 49 | 88 | 16 | |||||
| Stafford Twp. | NJ | 2026-05-07 22:05 | NJDOT | 53 | 49 | 89 | 16 | |||||
| Stafford Twp. | NJ | 2026-05-07 22:15 | NJDOT | 53 | 49 | 87 | 17 | |||||
| Stafford Twp. | NJ | 2026-05-07 22:20 | NJDOT | 53 | 49 | 87 | 16 | |||||
| Stafford Twp. | NJ | 2026-05-07 22:25 | NJDOT | 53 | 49 | 87 | 16 | |||||
| Stafford Twp. | NJ | 2026-05-07 22:30 | NJDOT | 53 | 49 | 88 | 15 | |||||
| Stafford Twp. | NJ | 2026-05-07 22:35 | NJDOT | 53 | 50 | 88 | 15 | |||||
| Stafford Twp. | NJ | 2026-05-07 22:40 | NJDOT | 53 | 50 | 88 | 16 | |||||
| Stafford Twp. | NJ | 2026-05-08 13:25 | NJDOT | 63 | 41 | 51 | 24 |
data collection created in 0.031540870666504 (queried in 0.007961) rendered in: 0.00030899047851562

